Leander, Louisiana
Current Conditions -  °F | °C
As of 12:54 PM on Thursday 23 Oct 2014 (Local Time) from KBKB Reporting Station
Clear Clear  
Wind Chill: 69°   Ceiling: Unl
Heat Index: 69°   Visibility: 10mi
Dew Point: 51°   Wind: 3mph
Humidity: 53%   Direction: NA
Pressure: 30.11"   Gusts: NA
Location:  31.0802°N, 92.7964°W
Report Text: KBKB 231754Z AUTO VRB03KT 10SM CLR 21/11 A3011 RMK AO2 SLP224 T02060106 10211 20122 58004
Loading
Personal Weather Stations






























Interactive Weather Map
Tropical Storm Tracking
New forecast layout! Learn more

10-Day Weather Forecast

Advertisements
Track Severe Weather on mobile